createdAt,value
2022-10-27T00:02:09.214Z,11.05
2022-10-27T00:04:35.678Z,10.96
2022-10-27T00:07:02.154Z,10.75
2022-10-27T00:09:28.685Z,10.73
2022-10-27T00:11:55.705Z,10.90
2022-10-27T00:14:22.429Z,10.86
2022-10-27T00:16:52.998Z,10.84
2022-10-27T00:19:19.438Z,10.67
2022-10-27T00:21:45.933Z,10.78
2022-10-27T00:24:12.374Z,10.91
2022-10-27T00:26:38.809Z,11.03
2022-10-27T00:29:05.248Z,11.02
2022-10-27T00:31:31.672Z,10.81
2022-10-27T00:33:58.118Z,10.79
2022-10-27T00:36:25.055Z,10.75
2022-10-27T00:38:58.574Z,10.67
2022-10-27T00:41:24.993Z,10.65
2022-10-27T00:43:51.746Z,10.53
2022-10-27T00:46:21.386Z,10.64
2022-10-27T00:48:49.149Z,10.70
2022-10-27T00:51:17.537Z,10.97
2022-10-27T00:53:44.866Z,10.60
2022-10-27T00:56:11.342Z,10.78
2022-10-27T00:58:38.021Z,10.43
2022-10-27T01:01:04.647Z,10.37
2022-10-27T01:03:31.294Z,10.29
2022-10-27T01:05:58.370Z,10.27
2022-10-27T01:08:25.711Z,10.21
2022-10-27T01:10:53.221Z,10.36
2022-10-27T01:13:20.279Z,10.39
2022-10-27T01:15:49.740Z,10.32
2022-10-27T01:18:34.914Z,10.11
2022-10-27T01:21:17.090Z,10.13
2022-10-27T01:24:02.314Z,10.14
2022-10-27T01:26:38.221Z,10.00
2022-10-27T01:29:04.668Z,10.00
2022-10-27T01:31:36.385Z,10.04
2022-10-27T01:34:22.711Z,10.05
2022-10-27T01:36:52.890Z,10.14
2022-10-27T01:39:22.005Z,9.97
2022-10-27T01:41:56.365Z,9.89
2022-10-27T01:44:24.897Z,10.06
2022-10-27T01:46:53.680Z,10.06
2022-10-27T01:49:21.091Z,10.08
2022-10-27T01:51:49.083Z,10.04
2022-10-27T01:54:16.359Z,10.29
2022-10-27T01:56:43.065Z,10.25
2022-10-27T01:59:25.418Z,10.18
2022-10-27T02:02:05.601Z,10.19
2022-10-27T02:04:55.338Z,10.15
2022-10-27T02:07:34.294Z,10.01
2022-10-27T02:10:05.222Z,10.05
2022-10-27T02:12:33.103Z,10.06
2022-10-27T02:15:00.757Z,10.00
2022-10-27T02:17:29.949Z,9.92
2022-10-27T02:19:58.434Z,9.82
2022-10-27T02:22:26.537Z,9.82
2022-10-27T02:24:53.056Z,9.77
2022-10-27T02:27:44.837Z,9.70
2022-10-27T02:30:11.645Z,9.69
2022-10-27T02:32:38.257Z,9.85
2022-10-27T02:35:05.643Z,9.83
2022-10-27T02:37:37.254Z,9.77
2022-10-27T02:40:03.873Z,9.87
2022-10-27T02:42:30.325Z,9.97
2022-10-27T02:44:56.732Z,9.95
2022-10-27T02:47:23.421Z,9.68
2022-10-27T02:49:49.933Z,9.64
2022-10-27T02:52:16.440Z,9.74
2022-10-27T02:54:47.974Z,9.81
2022-10-27T02:57:18.244Z,9.71
2022-10-27T02:59:45.524Z,9.58
2022-10-27T03:02:14.525Z,9.70
2022-10-27T03:04:40.997Z,9.70
2022-10-27T03:07:07.449Z,9.72
2022-10-27T03:09:33.866Z,9.71
2022-10-27T03:12:00.287Z,9.62
2022-10-27T03:14:26.694Z,9.45
2022-10-27T03:16:53.173Z,9.78
2022-10-27T03:19:19.591Z,9.64
2022-10-27T03:21:46.019Z,9.80
2022-10-27T03:24:12.426Z,9.64
2022-10-27T03:26:40.322Z,9.49
2022-10-27T03:29:07.323Z,9.42
2022-10-27T03:31:33.797Z,9.53
2022-10-27T03:34:00.203Z,9.56
2022-10-27T03:36:26.638Z,9.66
2022-10-27T03:38:54.621Z,9.86
2022-10-27T03:41:21.385Z,9.99
2022-10-27T03:43:47.843Z,9.69
2022-10-27T03:46:14.270Z,9.61
2022-10-27T03:48:40.736Z,9.71
2022-10-27T03:51:07.263Z,9.97
2022-10-27T03:53:33.727Z,9.92
2022-10-27T03:56:00.187Z,9.95
2022-10-27T03:58:26.641Z,10.09
2022-10-27T04:00:53.237Z,10.10
2022-10-27T04:03:19.764Z,10.07
2022-10-27T04:05:50.585Z,10.13
2022-10-27T04:08:17.022Z,10.20
2022-10-27T04:10:43.431Z,10.19
2022-10-27T04:13:09.834Z,10.19
2022-10-27T04:15:36.253Z,10.08
2022-10-27T04:18:02.759Z,10.23
2022-10-27T04:20:29.597Z,10.30
2022-10-27T04:22:56.744Z,10.47
2022-10-27T04:25:23.776Z,10.38
2022-10-27T04:27:50.688Z,10.51
2022-10-27T04:30:17.395Z,10.53
2022-10-27T04:32:43.838Z,10.49
2022-10-27T04:35:10.271Z,10.48
2022-10-27T04:37:36.698Z,10.54
2022-10-27T04:40:03.821Z,10.60
2022-10-27T04:42:30.220Z,10.71
2022-10-27T04:44:56.689Z,10.80
2022-10-27T04:47:23.101Z,10.69
2022-10-27T04:49:49.485Z,10.54
2022-10-27T04:52:15.902Z,10.57
2022-10-27T04:54:42.302Z,10.56
2022-10-27T04:57:08.744Z,10.60
2022-10-27T04:59:35.158Z,10.40
2022-10-27T05:02:01.726Z,10.25
2022-10-27T05:04:28.233Z,10.14
2022-10-27T05:06:54.645Z,10.07
2022-10-27T05:09:21.073Z,10.15
2022-10-27T05:11:47.517Z,10.10
2022-10-27T05:14:13.954Z,10.00
2022-10-27T05:16:40.366Z,9.91
2022-10-27T05:19:06.915Z,9.82
2022-10-27T05:21:33.412Z,9.81
2022-10-27T05:23:59.904Z,9.98
2022-10-27T05:26:26.351Z,9.91
2022-10-27T05:28:52.767Z,9.91
2022-10-27T05:31:19.288Z,9.77
2022-10-27T05:33:45.702Z,9.65
2022-10-27T05:36:12.113Z,9.63
2022-10-27T05:38:39.490Z,9.55
2022-10-27T05:41:06.043Z,9.64
2022-10-27T05:43:36.898Z,9.55
2022-10-27T05:46:05.824Z,9.82
2022-10-27T05:48:32.303Z,9.86
2022-10-27T05:50:58.758Z,9.75
2022-10-27T05:53:25.246Z,9.83
2022-10-27T05:55:55.159Z,9.80
2022-10-27T05:58:21.671Z,9.82
2022-10-27T06:00:48.141Z,9.74
2022-10-27T06:03:24.259Z,9.82
2022-10-27T06:05:51.106Z,9.86
2022-10-27T06:08:18.317Z,10.00
2022-10-27T06:10:45.563Z,10.01
2022-10-27T06:13:14.475Z,10.13
2022-10-27T06:15:41.270Z,10.48
2022-10-27T06:18:08.109Z,10.62
2022-10-27T06:20:34.850Z,10.84
2022-10-27T06:23:01.333Z,10.92
2022-10-27T06:25:27.735Z,11.01
2022-10-27T06:27:54.399Z,11.25
2022-10-27T06:30:21.240Z,11.90
2022-10-27T06:32:47.750Z,12.41
2022-10-27T06:35:14.241Z,12.54
2022-10-27T06:37:41.238Z,12.20
2022-10-27T06:40:07.946Z,12.51
2022-10-27T06:42:48.983Z,12.92
2022-10-27T06:45:22.108Z,13.31
2022-10-27T06:47:55.558Z,13.54
2022-10-27T06:50:21.999Z,13.95
2022-10-27T06:52:48.837Z,14.42
2022-10-27T06:55:15.458Z,14.87
2022-10-27T06:57:42.409Z,15.21
2022-10-27T07:00:10.350Z,15.46
2022-10-27T07:02:37.036Z,15.97
2022-10-27T07:05:04.303Z,15.82
2022-10-27T07:07:30.843Z,15.71
2022-10-27T07:09:57.277Z,15.75
2022-10-27T07:12:23.765Z,16.10
2022-10-27T07:14:50.180Z,16.47
2022-10-27T07:17:16.688Z,16.98
2022-10-27T07:19:43.162Z,17.17
2022-10-27T07:22:09.566Z,16.87
2022-10-27T07:24:36.008Z,17.11
2022-10-27T07:27:02.471Z,17.17
2022-10-27T07:29:29.695Z,17.25
2022-10-27T07:31:56.322Z,17.24
2022-10-27T07:34:22.775Z,17.43
2022-10-27T07:36:49.263Z,17.72
2022-10-27T07:39:15.674Z,18.14
2022-10-27T07:41:42.133Z,18.92
2022-10-27T07:44:08.642Z,18.09
2022-10-27T07:46:35.122Z,17.90
2022-10-27T07:49:01.548Z,17.53
2022-10-27T07:51:28.028Z,17.60
2022-10-27T07:53:57.889Z,19.05
2022-10-27T07:56:24.689Z,18.77
2022-10-27T07:58:51.186Z,18.38
2022-10-27T08:01:17.705Z,18.38
2022-10-27T08:03:46.302Z,18.67
2022-10-27T08:06:15.240Z,18.61
2022-10-27T08:08:41.706Z,18.61
2022-10-27T08:11:08.147Z,19.14
2022-10-27T08:13:34.554Z,19.08
2022-10-27T08:16:00.989Z,19.22
2022-10-27T08:18:27.468Z,19.27
2022-10-27T08:20:54.079Z,19.38
2022-10-27T08:23:21.873Z,18.44
2022-10-27T08:25:48.398Z,19.25
2022-10-27T08:28:14.907Z,19.22
2022-10-27T08:30:48.352Z,19.46
2022-10-27T08:33:19.629Z,18.75
2022-10-27T08:35:46.070Z,18.73
2022-10-27T08:38:16.807Z,19.36
2022-10-27T08:43:21.793Z,19.39
2022-10-27T08:45:55.867Z,19.30
2022-10-27T08:48:25.298Z,19.81
2022-10-27T08:50:52.538Z,20.53
2022-10-27T08:53:25.070Z,20.46
2022-10-27T08:55:53.102Z,20.64
2022-10-27T08:58:28.841Z,20.71
2022-10-27T09:01:00.193Z,19.64
2022-10-27T09:03:48.552Z,19.66
2022-10-27T09:06:21.729Z,20.81
2022-10-27T09:08:51.691Z,20.65
2022-10-27T09:11:27.261Z,20.90
2022-10-27T09:14:08.139Z,20.61
2022-10-27T09:16:41.873Z,21.07
2022-10-27T09:19:13.334Z,21.15
2022-10-27T09:21:41.946Z,21.16
2022-10-27T09:24:12.099Z,21.32
2022-10-27T09:26:39.435Z,21.00
2022-10-27T09:29:19.590Z,20.85
2022-10-27T09:31:51.343Z,21.73
2022-10-27T09:34:20.506Z,22.20
2022-10-27T09:36:47.049Z,22.54
2022-10-27T09:39:13.692Z,22.50
2022-10-27T09:41:40.193Z,22.81
2022-10-27T09:44:17.044Z,22.46
2022-10-27T09:46:44.040Z,23.01
2022-10-27T09:49:11.140Z,23.13
2022-10-27T09:51:44.573Z,23.62
2022-10-27T09:54:29.378Z,22.75
2022-10-27T09:56:56.642Z,22.73
2022-10-27T09:59:23.797Z,23.70
2022-10-27T10:01:59.589Z,24.42
2022-10-27T10:04:31.114Z,24.14
2022-10-27T10:06:58.970Z,23.67
2022-10-27T10:09:31.455Z,23.66
2022-10-27T10:12:20.209Z,23.98
2022-10-27T10:14:49.906Z,24.11
2022-10-27T10:17:28.839Z,24.36
2022-10-27T10:19:55.992Z,24.14
2022-10-27T10:22:24.854Z,24.48
2022-10-27T10:24:51.931Z,25.09
2022-10-27T10:27:29.655Z,25.32
2022-10-27T10:29:57.729Z,25.49
2022-10-27T10:32:25.836Z,25.10
2022-10-27T10:34:53.338Z,24.71
2022-10-27T10:37:32.242Z,24.72
2022-10-27T10:40:14.367Z,24.99
2022-10-27T10:42:44.135Z,25.17
2022-10-27T10:45:18.182Z,25.71
2022-10-27T10:47:48.502Z,25.83
2022-10-27T10:50:15.675Z,25.71
2022-10-27T10:52:53.326Z,25.31
2022-10-27T10:55:23.293Z,25.54
2022-10-27T10:57:52.336Z,24.95
2022-10-27T11:00:20.149Z,25.17
2022-10-27T11:02:59.412Z,25.83
2022-10-27T11:05:30.242Z,25.77
2022-10-27T11:07:56.930Z,25.73
2022-10-27T11:10:28.262Z,25.68
2022-10-27T11:13:00.634Z,25.69
2022-10-27T11:15:28.429Z,24.51
2022-10-27T11:18:15.138Z,24.76
2022-10-27T11:20:43.114Z,24.28
2022-10-27T11:23:15.542Z,25.43
2022-10-27T11:25:42.201Z,25.65
2022-10-27T11:28:26.753Z,25.53
2022-10-27T11:31:00.734Z,26.33
2022-10-27T11:33:37.429Z,25.83
2022-10-27T11:36:06.485Z,26.45
2022-10-27T11:38:54.553Z,26.40
2022-10-27T11:41:24.071Z,25.98
2022-10-27T11:44:08.764Z,25.81
2022-10-27T11:46:42.687Z,27.02
2022-10-27T11:49:12.335Z,27.09
2022-10-27T11:52:00.148Z,27.14
2022-10-27T11:54:27.293Z,27.00
2022-10-27T11:57:22.161Z,26.59
2022-10-27T12:00:02.345Z,26.70
2022-10-27T12:02:50.510Z,26.38
2022-10-27T12:05:21.279Z,25.88
2022-10-27T12:07:47.667Z,26.68
2022-10-27T12:10:14.259Z,26.51
2022-10-27T12:12:45.594Z,25.83
2022-10-27T12:15:26.393Z,26.27
2022-10-27T12:17:58.775Z,26.27
2022-10-27T12:20:30.766Z,26.27
2022-10-27T12:23:03.698Z,26.77
2022-10-27T12:25:42.347Z,25.85
2022-10-27T12:30:46.087Z,25.31
2022-10-27T12:33:30.678Z,25.74
2022-10-27T12:36:16.033Z,25.75
2022-10-27T12:38:42.469Z,26.39
2022-10-27T12:41:12.186Z,26.04
2022-10-27T12:43:45.132Z,26.03
2022-10-27T12:46:23.195Z,25.94
2022-10-27T12:49:08.419Z,26.11
2022-10-27T12:51:41.274Z,26.19
2022-10-27T12:54:10.761Z,26.32
2022-10-27T12:56:47.235Z,26.27
2022-10-27T12:59:28.413Z,25.96
2022-10-27T13:01:59.244Z,26.21
2022-10-27T13:04:28.713Z,25.69
2022-10-27T13:07:13.969Z,25.45
2022-10-27T13:09:43.383Z,25.90
2022-10-27T13:12:33.010Z,25.81
2022-10-27T13:15:13.859Z,26.11
2022-10-27T13:17:58.656Z,26.14
2022-10-27T13:20:47.566Z,25.92
2022-10-27T13:23:28.217Z,25.42
2022-10-27T13:26:30.244Z,25.40
2022-10-27T13:29:00.629Z,25.99
2022-10-27T13:31:27.422Z,26.17
2022-10-27T13:36:33.068Z,25.34
2022-10-27T13:39:14.831Z,25.28
2022-10-27T13:41:44.255Z,25.95
2022-10-27T13:44:24.637Z,25.95
2022-10-27T13:47:03.336Z,25.80
2022-10-27T13:49:41.853Z,25.51
2022-10-27T13:52:17.484Z,25.05
2022-10-27T13:54:53.231Z,25.24
2022-10-27T13:57:25.872Z,25.27
2022-10-27T13:59:59.000Z,24.81
2022-10-27T14:02:32.768Z,24.21
2022-10-27T14:05:02.251Z,23.74
2022-10-27T14:07:33.903Z,23.67
2022-10-27T14:10:00.417Z,23.74
2022-10-27T14:12:28.865Z,23.28
2022-10-27T14:15:03.150Z,22.82
2022-10-27T14:17:29.697Z,22.37
2022-10-27T14:20:27.575Z,22.29
2022-10-27T14:22:57.635Z,21.67
2022-10-27T14:25:30.866Z,21.27
2022-10-27T14:28:16.801Z,21.07
2022-10-27T14:30:44.334Z,20.74
2022-10-27T14:33:22.555Z,21.02
2022-10-27T14:35:49.214Z,21.31
2022-10-27T14:38:17.325Z,20.85
2022-10-27T14:40:43.910Z,20.88
2022-10-27T14:43:16.903Z,21.32
2022-10-27T14:45:43.830Z,21.72
2022-10-27T14:48:21.232Z,21.19
2022-10-27T14:50:47.837Z,21.45
2022-10-27T14:53:23.897Z,21.13
2022-10-27T14:56:01.819Z,20.81
2022-10-27T14:58:28.263Z,20.55
2022-10-27T15:00:54.789Z,20.46
2022-10-27T15:03:21.218Z,20.18
2022-10-27T15:05:48.326Z,20.25
2022-10-27T15:08:14.738Z,19.93
2022-10-27T15:10:44.058Z,19.47
2022-10-27T15:13:14.445Z,19.41
2022-10-27T15:15:42.598Z,19.22
2022-10-27T15:20:45.950Z,19.04
2022-10-27T15:23:13.817Z,18.71
2022-10-27T15:25:40.733Z,18.62
2022-10-27T15:28:09.001Z,18.42
2022-10-27T15:30:35.782Z,18.34
2022-10-27T15:33:22.145Z,18.38
2022-10-27T15:35:48.623Z,18.18
2022-10-27T15:38:27.993Z,18.27
2022-10-27T15:41:06.001Z,18.14
2022-10-27T15:43:32.783Z,18.16
2022-10-27T15:46:17.910Z,18.23
2022-10-27T15:48:45.656Z,18.12
2022-10-27T15:51:17.215Z,18.09
2022-10-27T15:53:48.786Z,17.82
2022-10-27T15:56:27.686Z,17.67
2022-10-27T15:59:04.259Z,17.70
2022-10-27T16:01:32.491Z,17.62
2022-10-27T16:04:03.406Z,17.41
2022-10-27T16:06:30.752Z,17.24
2022-10-27T16:09:01.121Z,17.15
2022-10-27T16:11:33.349Z,16.98
2022-10-27T16:14:03.996Z,16.87
2022-10-27T16:16:31.653Z,16.95
2022-10-27T16:18:58.085Z,16.84
2022-10-27T16:21:29.152Z,16.79
2022-10-27T16:24:17.269Z,16.99
2022-10-27T16:26:44.150Z,16.84
2022-10-27T16:29:14.718Z,16.74
2022-10-27T16:31:41.164Z,16.77
2022-10-27T16:34:12.262Z,16.55
2022-10-27T16:36:38.678Z,16.39
2022-10-27T16:39:05.130Z,16.34
2022-10-27T16:41:32.008Z,16.35
2022-10-27T16:43:58.520Z,16.11
2022-10-27T16:46:25.011Z,16.12
2022-10-27T16:48:51.629Z,16.09
2022-10-27T16:51:18.116Z,16.03
2022-10-27T16:53:46.767Z,15.83
2022-10-27T16:56:13.335Z,15.88
2022-10-27T16:58:41.567Z,15.95
2022-10-27T17:01:09.542Z,15.91
2022-10-27T17:03:36.453Z,15.86
2022-10-27T17:06:03.565Z,15.63
2022-10-27T17:08:31.887Z,15.52
2022-10-27T17:10:58.354Z,15.39
2022-10-27T17:13:24.991Z,15.34
2022-10-27T17:15:51.396Z,15.30
2022-10-27T17:18:18.174Z,15.34
2022-10-27T17:20:44.614Z,15.41
2022-10-27T17:23:11.088Z,15.37
2022-10-27T17:25:37.640Z,15.18
2022-10-27T17:28:04.151Z,15.15
2022-10-27T17:30:30.574Z,15.20
2022-10-27T17:32:57.265Z,15.18
2022-10-27T17:35:23.806Z,15.07
2022-10-27T17:37:50.483Z,15.10
2022-10-27T17:40:17.100Z,15.10
2022-10-27T17:42:43.503Z,15.03
2022-10-27T17:45:10.110Z,14.85
2022-10-27T17:47:36.558Z,14.71
2022-10-27T17:50:06.356Z,14.75
2022-10-27T17:52:35.581Z,14.58
2022-10-27T17:55:02.074Z,14.51
2022-10-27T17:57:28.822Z,14.54
2022-10-27T17:59:56.505Z,14.49
2022-10-27T18:02:23.552Z,14.32
2022-10-27T18:04:50.094Z,14.38
2022-10-27T18:07:16.573Z,14.28
2022-10-27T18:09:42.985Z,14.36
2022-10-27T18:12:09.432Z,14.18
2022-10-27T18:14:35.865Z,14.15
2022-10-27T18:17:05.626Z,13.97
2022-10-27T18:19:32.747Z,14.11
2022-10-27T18:21:59.234Z,14.04
2022-10-27T18:24:25.688Z,13.90
2022-10-27T18:26:52.208Z,13.98
2022-10-27T18:29:22.346Z,14.03
2022-10-27T18:31:52.068Z,13.86
2022-10-27T18:34:18.527Z,13.83
2022-10-27T18:36:45.573Z,13.94
2022-10-27T18:39:13.930Z,13.82
2022-10-27T18:41:40.373Z,13.81
2022-10-27T18:44:07.137Z,13.88
2022-10-27T18:46:33.591Z,13.78
2022-10-27T18:49:00.758Z,13.78
2022-10-27T18:51:28.500Z,13.68
2022-10-27T18:53:55.910Z,13.70
2022-10-27T18:56:22.954Z,13.53
2022-10-27T18:58:56.593Z,13.50
2022-10-27T19:01:23.791Z,13.47
2022-10-27T19:03:52.812Z,13.38
2022-10-27T19:06:19.694Z,13.34
2022-10-27T19:08:46.134Z,13.20
2022-10-27T19:11:13.675Z,13.00
2022-10-27T19:13:40.970Z,13.17
2022-10-27T19:16:10.158Z,13.29
2022-10-27T19:18:36.792Z,13.21
2022-10-27T19:21:10.350Z,13.22
2022-10-27T19:23:36.893Z,13.15
2022-10-27T19:26:05.135Z,13.17
2022-10-27T19:28:32.275Z,13.26
2022-10-27T19:30:58.728Z,13.21
2022-10-27T19:33:25.229Z,13.23
2022-10-27T19:35:53.285Z,13.20
2022-10-27T19:38:20.438Z,13.18
2022-10-27T19:40:46.875Z,13.11
2022-10-27T19:43:13.379Z,13.02
2022-10-27T19:45:45.923Z,12.95
2022-10-27T19:48:12.356Z,12.83
2022-10-27T19:50:38.869Z,12.96
2022-10-27T19:53:05.305Z,12.87
2022-10-27T19:55:32.848Z,12.85
2022-10-27T19:57:59.277Z,12.69
2022-10-27T20:00:25.795Z,12.74
2022-10-27T20:02:56.455Z,12.79
2022-10-27T20:05:23.820Z,12.73
2022-10-27T20:07:50.765Z,12.65
2022-10-27T20:10:18.190Z,12.67
2022-10-27T20:12:44.635Z,12.75
2022-10-27T20:15:11.743Z,12.81
2022-10-27T20:17:38.156Z,12.70
2022-10-27T20:20:05.465Z,12.70
2022-10-27T20:22:31.925Z,12.64
2022-10-27T20:24:58.365Z,12.61
2022-10-27T20:27:24.997Z,12.51
2022-10-27T20:29:51.428Z,12.59
2022-10-27T20:32:17.824Z,12.47
2022-10-27T20:34:44.286Z,12.48
2022-10-27T20:37:10.693Z,12.42
2022-10-27T20:39:37.189Z,12.32
2022-10-27T20:42:03.698Z,12.35
2022-10-27T20:44:30.190Z,12.30
2022-10-27T20:46:56.608Z,12.36
2022-10-27T20:49:23.022Z,12.36
2022-10-27T20:51:49.483Z,12.37
2022-10-27T20:54:15.965Z,12.33
2022-10-27T20:56:42.498Z,12.28
2022-10-27T20:59:08.990Z,12.21
2022-10-27T21:01:39.754Z,12.15
2022-10-27T21:04:07.601Z,12.14
2022-10-27T21:06:38.189Z,11.96
2022-10-27T21:09:06.755Z,12.02
2022-10-27T21:11:33.316Z,11.97
2022-10-27T21:14:00.425Z,12.00
2022-10-27T21:16:27.194Z,11.90
2022-10-27T21:18:54.858Z,11.73
2022-10-27T21:21:22.078Z,11.56
2022-10-27T21:23:48.822Z,11.70
2022-10-27T21:26:15.597Z,11.58
2022-10-27T21:28:42.238Z,11.69
2022-10-27T21:31:09.773Z,12.10
2022-10-27T21:33:36.213Z,12.09
2022-10-27T21:36:06.414Z,11.99
2022-10-27T21:38:34.105Z,11.86
2022-10-27T21:41:00.785Z,11.72
2022-10-27T21:43:27.327Z,11.68
2022-10-27T21:45:54.673Z,11.53
2022-10-27T21:48:21.098Z,11.47
2022-10-27T21:50:47.502Z,11.50
2022-10-27T21:53:13.933Z,11.44
2022-10-27T21:58:11.662Z,11.30
2022-10-27T22:00:38.111Z,11.45
2022-10-27T22:03:04.649Z,11.55
2022-10-27T22:05:31.084Z,11.64
2022-10-27T22:07:57.581Z,11.46
2022-10-27T22:10:24.080Z,11.45
2022-10-27T22:12:50.813Z,11.30
2022-10-27T22:15:17.406Z,11.31
2022-10-27T22:17:43.839Z,11.34
2022-10-27T22:20:10.399Z,11.28
2022-10-27T22:22:36.873Z,11.27
2022-10-27T22:25:03.438Z,11.16
2022-10-27T22:27:29.886Z,11.13
2022-10-27T22:29:56.316Z,11.02
2022-10-27T22:32:22.725Z,11.15
2022-10-27T22:34:49.206Z,10.97
2022-10-27T22:37:15.610Z,11.11
2022-10-27T22:39:42.043Z,11.07
2022-10-27T22:42:08.514Z,10.70
2022-10-27T22:44:34.980Z,10.78
2022-10-27T22:47:01.463Z,10.94
2022-10-27T22:49:27.931Z,10.78
2022-10-27T22:51:54.385Z,10.87
2022-10-27T22:54:20.819Z,10.87
2022-10-27T22:56:47.254Z,10.97
2022-10-27T22:59:13.804Z,10.83
2022-10-27T23:01:40.424Z,10.93
2022-10-27T23:04:07.760Z,10.89
2022-10-27T23:06:35.447Z,10.80
2022-10-27T23:09:03.925Z,10.81
2022-10-27T23:11:34.700Z,10.81
2022-10-27T23:14:01.206Z,11.26
2022-10-27T23:16:29.096Z,11.15
2022-10-27T23:18:56.443Z,10.99
2022-10-27T23:21:22.892Z,10.79
2022-10-27T23:23:52.865Z,10.73
2022-10-27T23:26:23.894Z,10.61
2022-10-27T23:28:51.409Z,10.56
2022-10-27T23:31:17.947Z,10.64
2022-10-27T23:33:44.759Z,10.51
2022-10-27T23:36:11.883Z,10.52
2022-10-27T23:38:38.643Z,10.46
2022-10-27T23:41:05.405Z,10.53
2022-10-27T23:43:31.877Z,10.44
2022-10-27T23:45:59.392Z,10.30
2022-10-27T23:48:25.802Z,10.38
2022-10-27T23:50:52.241Z,10.48
2022-10-27T23:53:18.698Z,10.37
2022-10-27T23:55:51.025Z,10.31
2022-10-27T23:58:17.464Z,10.44
